Aviation Digital Data Service (ADDS)

Output produced by METARs form (0716 UTC 19 February 2019)
found at http://www.aviationweather.gov/metar/data/
 
Forecast for: KBAB (BEALE AFB/MARYSV, CA, US)
Text: TAF KBAB 190305Z 1903/2009 33009KT 9999 SKC QNH3011INS
Forecast period: 0300 UTC 19 February 2019 to 0200 UTC 20 February 2019
Forecast type: FROM: standard forecast or significant change
Winds: from the NNW (330 degrees) at 10 MPH (9 knots; 4.6 m/s)
Visibility: 6 or more miles 10+ km)
Clouds: clear skies
Weather: no significant weather forecast for this period
Text: BECMG 2002/2003 15009KT 9999 FEW100 QNH3006INS TX08/1921Z TNM01/1914Z
Forecast period: 0200 to 0900 UTC 20 February 2019
Forecast type: BECOMING: Conditions expected to become as follows by 0300 UTC 20 February 2019
Winds: from the SSE (150 degrees) at 10 MPH (9 knots; 4.6 m/s)
Visibility: 6 or more miles 10+ km)
Ceiling: at least 12,000 feet AGL
Clouds: few clouds at 10000 feet AGL
Weather: no significant weather forecast for this period